createdAt,value
2022-11-10T00:00:28.161Z,12.80
2022-11-10T00:04:49.609Z,12.80
2022-11-10T00:09:12.475Z,12.90
2022-11-10T00:13:56.183Z,12.80
2022-11-10T00:18:17.466Z,12.80
2022-11-10T00:22:40.038Z,12.80
2022-11-10T00:27:03.281Z,12.80
2022-11-10T00:31:24.673Z,12.80
2022-11-10T00:35:45.821Z,12.80
2022-11-10T00:40:07.880Z,12.80
2022-11-10T00:44:30.345Z,12.70
2022-11-10T00:48:51.464Z,12.70
2022-11-10T00:53:12.599Z,12.70
2022-11-10T00:57:33.728Z,12.70
2022-11-10T01:01:56.586Z,12.70
2022-11-10T01:06:19.192Z,12.70
2022-11-10T01:10:40.561Z,12.70
2022-11-10T01:15:01.691Z,12.60
2022-11-10T01:19:24.194Z,12.60
2022-11-10T01:23:45.338Z,12.60
2022-11-10T01:28:06.418Z,12.60
2022-11-10T01:32:27.737Z,12.50
2022-11-10T01:36:50.533Z,12.50
2022-11-10T01:41:14.839Z,12.50
2022-11-10T01:45:46.401Z,12.50
2022-11-10T01:50:08.464Z,12.50
2022-11-10T01:54:34.766Z,12.50
2022-11-10T01:58:59.258Z,12.50
2022-11-10T02:03:26.711Z,12.40
2022-11-10T02:07:48.434Z,12.50
2022-11-10T02:12:12.121Z,12.40
2022-11-10T02:16:33.805Z,12.40
2022-11-10T02:20:56.300Z,12.30
2022-11-10T02:25:21.002Z,12.30
2022-11-10T02:29:42.061Z,12.30
2022-11-10T02:34:03.166Z,12.20
2022-11-10T02:38:25.573Z,12.30
2022-11-10T02:42:46.600Z,12.20
2022-11-10T02:47:08.408Z,12.20
2022-11-10T02:51:29.675Z,12.20
2022-11-10T02:55:51.932Z,12.00
2022-11-10T03:00:13.787Z,12.00
2022-11-10T03:04:35.241Z,11.90
2022-11-10T03:08:56.517Z,11.90
2022-11-10T03:13:19.163Z,11.90
2022-11-10T03:17:40.676Z,12.00
2022-11-10T03:22:02.425Z,12.00
2022-11-10T03:26:23.756Z,12.00
2022-11-10T03:30:46.859Z,12.00
2022-11-10T03:35:08.726Z,12.00
2022-11-10T03:39:30.184Z,12.00
2022-11-10T03:43:51.445Z,12.00
2022-11-10T03:48:14.014Z,12.00
2022-11-10T03:52:35.449Z,11.90
2022-11-10T03:56:56.548Z,12.00
2022-11-10T04:01:17.829Z,11.90
2022-11-10T04:05:57.734Z,11.90
2022-11-10T04:10:19.171Z,11.90
2022-11-10T04:14:57.827Z,11.80
2022-11-10T04:19:19.301Z,11.80
2022-11-10T04:23:41.879Z,11.80
2022-11-10T04:28:03.042Z,11.70
2022-11-10T04:32:24.087Z,11.70
2022-11-10T04:36:45.958Z,11.70
2022-11-10T04:41:09.449Z,11.70
2022-11-10T04:45:31.080Z,11.70
2022-11-10T04:49:52.245Z,11.80
2022-11-10T04:54:13.477Z,11.80
2022-11-10T04:58:35.874Z,11.80
2022-11-10T05:03:00.476Z,11.70
2022-11-10T05:07:21.943Z,11.60
2022-11-10T05:11:43.094Z,11.50
2022-11-10T05:16:06.478Z,11.50
2022-11-10T05:20:28.812Z,11.50
2022-11-10T05:24:50.115Z,11.40
2022-11-10T05:29:11.194Z,11.40
2022-11-10T05:33:34.639Z,11.40
2022-11-10T05:37:55.868Z,11.40
2022-11-10T05:42:16.989Z,11.40
2022-11-10T05:46:37.989Z,11.30
2022-11-10T05:51:00.312Z,11.40
2022-11-10T05:55:24.589Z,11.40
2022-11-10T05:59:46.003Z,11.30
2022-11-10T06:04:07.622Z,11.30
2022-11-10T06:08:30.063Z,11.20
2022-11-10T06:12:51.298Z,11.20
2022-11-10T06:17:12.533Z,11.20
2022-11-10T06:21:33.565Z,11.10
2022-11-10T06:25:56.188Z,11.10
2022-11-10T06:30:17.489Z,11.20
2022-11-10T06:34:38.625Z,11.20
2022-11-10T06:38:59.658Z,11.10
2022-11-10T06:43:22.625Z,11.20
2022-11-10T06:47:44.234Z,11.10
2022-11-10T06:52:05.752Z,11.10
2022-11-10T06:56:27.211Z,11.10
2022-11-10T07:00:49.740Z,11.10
2022-11-10T07:05:11.250Z,11.10
2022-11-10T07:09:32.340Z,11.10
2022-11-10T07:13:53.338Z,11.10
2022-11-10T07:18:16.245Z,11.10
2022-11-10T07:22:37.483Z,11.10
2022-11-10T07:26:58.718Z,11.20
2022-11-10T07:31:20.119Z,11.20
2022-11-10T07:35:43.084Z,11.20
2022-11-10T07:40:04.848Z,11.30
2022-11-10T07:44:27.622Z,11.40
2022-11-10T07:48:48.936Z,11.40
2022-11-10T07:53:13.917Z,11.40
2022-11-10T07:57:35.303Z,11.50
2022-11-10T08:01:56.720Z,11.50
2022-11-10T08:06:17.895Z,11.60
2022-11-10T08:10:41.926Z,11.70
2022-11-10T08:15:03.969Z,11.80
2022-11-10T08:19:25.363Z,11.90
2022-11-10T08:23:46.549Z,12.00
2022-11-10T08:28:10.864Z,12.00
2022-11-10T08:32:32.279Z,12.00
2022-11-10T08:36:53.758Z,12.00
2022-11-10T08:41:15.824Z,12.00
2022-11-10T08:45:39.410Z,12.10
2022-11-10T08:50:00.486Z,12.00
2022-11-10T08:54:21.483Z,12.00
2022-11-10T08:58:50.240Z,12.00
2022-11-10T09:03:18.573Z,12.10
2022-11-10T09:07:46.702Z,12.10
2022-11-10T09:12:07.993Z,12.20
2022-11-10T09:16:29.309Z,12.20
2022-11-10T09:20:51.929Z,12.30
2022-11-10T09:25:13.118Z,12.40
2022-11-10T09:29:34.206Z,13.00
2022-11-10T09:33:55.605Z,15.00
2022-11-10T09:38:18.534Z,16.60
2022-11-10T09:42:42.343Z,16.60
2022-11-10T09:47:12.419Z,16.40
2022-11-10T09:51:44.025Z,15.80
2022-11-10T09:56:18.272Z,16.10
2022-11-10T10:00:41.949Z,18.00
2022-11-10T10:05:21.014Z,18.30
2022-11-10T10:09:53.693Z,19.90
2022-11-10T10:14:24.959Z,21.50
2022-11-10T10:18:59.990Z,22.70
2022-11-10T10:23:46.749Z,23.70
2022-11-10T10:28:20.840Z,22.70
2022-11-10T10:32:43.511Z,21.20
2022-11-10T10:37:04.665Z,19.90
2022-11-10T10:41:27.886Z,19.00
2022-11-10T10:46:06.566Z,18.50
2022-11-10T10:50:33.879Z,18.10
2022-11-10T10:55:01.954Z,18.40
2022-11-10T10:59:24.793Z,20.60
2022-11-10T11:03:47.987Z,22.40
2022-11-10T11:08:18.723Z,23.90
2022-11-10T11:12:39.965Z,25.30
2022-11-10T11:17:03.397Z,26.20
2022-11-10T11:21:33.531Z,26.40
2022-11-10T11:26:07.951Z,25.60
2022-11-10T11:30:37.332Z,23.80
2022-11-10T11:35:07.811Z,22.30
2022-11-10T11:39:39.238Z,21.10
2022-11-10T11:44:16.408Z,20.10
2022-11-10T11:48:52.167Z,19.30
2022-11-10T11:53:29.748Z,19.90
2022-11-10T11:58:05.468Z,22.00
2022-11-10T12:02:42.889Z,23.80
2022-11-10T12:07:14.987Z,25.30
2022-11-10T12:11:54.317Z,26.20
2022-11-10T12:16:21.968Z,26.50
2022-11-10T12:20:53.605Z,26.50
2022-11-10T12:25:24.425Z,25.80
2022-11-10T12:29:49.609Z,24.40
2022-11-10T12:34:17.379Z,23.30
2022-11-10T12:38:47.476Z,24.00
2022-11-10T12:43:17.432Z,24.90
2022-11-10T12:47:42.933Z,25.30
2022-11-10T12:52:10.473Z,25.60
2022-11-10T12:56:38.874Z,25.60
2022-11-10T13:01:02.604Z,24.50
2022-11-10T13:05:38.044Z,23.40
2022-11-10T13:10:17.042Z,23.20
2022-11-10T13:14:40.719Z,22.50
2022-11-10T13:19:02.773Z,22.30
2022-11-10T13:23:31.075Z,21.80
2022-11-10T13:27:53.448Z,21.20
2022-11-10T13:32:30.199Z,21.40
2022-11-10T13:36:51.590Z,21.60
2022-11-10T13:41:24.632Z,21.60
2022-11-10T13:45:47.783Z,21.60
2022-11-10T13:50:24.801Z,21.70
2022-11-10T13:55:10.496Z,21.60
2022-11-10T13:59:45.231Z,21.50
2022-11-10T14:04:06.784Z,21.30
2022-11-10T14:08:36.041Z,21.10
2022-11-10T14:13:03.741Z,20.90
2022-11-10T14:17:28.505Z,20.60
2022-11-10T14:21:58.127Z,20.30
2022-11-10T14:26:28.146Z,20.10
2022-11-10T14:30:52.051Z,19.80
2022-11-10T14:35:23.022Z,19.60
2022-11-10T14:39:44.830Z,19.40
2022-11-10T14:44:12.208Z,19.10
2022-11-10T14:48:35.030Z,18.90
2022-11-10T14:53:02.297Z,18.60
2022-11-10T14:57:23.509Z,18.30
2022-11-10T15:01:54.587Z,18.00
2022-11-10T15:06:16.785Z,17.70
2022-11-10T15:10:46.268Z,17.40
2022-11-10T15:15:19.369Z,17.20
2022-11-10T15:19:55.432Z,16.80
2022-11-10T15:24:17.014Z,16.60
2022-11-10T15:28:38.372Z,16.30
2022-11-10T15:33:02.429Z,16.10
2022-11-10T15:37:30.455Z,15.90
2022-11-10T15:41:58.785Z,15.60
2022-11-10T15:46:23.040Z,15.40
2022-11-10T15:50:47.170Z,15.20
2022-11-10T15:55:21.096Z,15.00
2022-11-10T15:59:42.869Z,14.80
2022-11-10T16:04:04.152Z,14.60
2022-11-10T16:08:26.335Z,14.50
2022-11-10T16:12:49.434Z,14.40
2022-11-10T16:17:11.820Z,14.20
2022-11-10T16:21:33.250Z,14.10
2022-11-10T16:25:56.567Z,13.90
2022-11-10T16:30:19.539Z,13.80
2022-11-10T16:34:40.641Z,13.70
2022-11-10T16:39:03.605Z,13.60
2022-11-10T16:43:25.403Z,13.50
2022-11-10T16:47:51.121Z,13.40
2022-11-10T16:52:15.145Z,13.30
2022-11-10T16:56:36.380Z,13.10
2022-11-10T17:01:00.049Z,13.00
2022-11-10T17:05:22.802Z,12.90
2022-11-10T17:09:44.019Z,12.80
2022-11-10T17:14:06.872Z,12.70
2022-11-10T17:18:28.867Z,12.50
2022-11-10T17:22:52.146Z,12.30
2022-11-10T17:27:13.611Z,12.20
2022-11-10T17:31:34.864Z,12.10
2022-11-10T17:35:57.612Z,12.00
2022-11-10T17:40:22.375Z,12.00
2022-11-10T17:44:43.854Z,11.90
2022-11-10T17:49:05.017Z,11.80
2022-11-10T17:53:28.608Z,11.70
2022-11-10T17:57:52.001Z,11.80
2022-11-10T18:02:13.470Z,11.70
2022-11-10T18:06:34.739Z,11.60
2022-11-10T18:10:55.864Z,11.50
2022-11-10T18:15:18.738Z,11.50
2022-11-10T18:19:39.917Z,11.40
2022-11-10T18:24:01.871Z,11.30
2022-11-10T18:28:23.284Z,11.20
2022-11-10T18:32:45.859Z,11.10
2022-11-10T18:37:07.180Z,11.00
2022-11-10T18:41:46.063Z,10.90
2022-11-10T18:46:07.598Z,10.70
2022-11-10T18:50:30.581Z,10.70
2022-11-10T18:54:51.887Z,10.70
2022-11-10T18:59:13.089Z,10.40
2022-11-10T19:03:35.296Z,10.30
2022-11-10T19:07:57.740Z,10.30
2022-11-10T19:12:21.453Z,10.30
2022-11-10T19:16:46.624Z,10.30
2022-11-10T19:21:08.609Z,10.30
2022-11-10T19:25:31.795Z,10.40
2022-11-10T19:29:53.303Z,10.30
2022-11-10T19:34:18.525Z,10.20
2022-11-10T19:38:40.554Z,10.10
2022-11-10T19:43:03.257Z,10.10
2022-11-10T19:47:24.738Z,10.10
2022-11-10T19:51:45.978Z,10.10
2022-11-10T19:56:09.172Z,10.00
2022-11-10T20:00:31.587Z,9.90
2022-11-10T20:05:10.034Z,9.90
2022-11-10T20:09:31.424Z,9.90
2022-11-10T20:13:55.139Z,10.00
2022-11-10T20:18:18.092Z,10.00
2022-11-10T20:22:39.203Z,10.00
2022-11-10T20:27:00.386Z,10.00
2022-11-10T20:31:24.830Z,9.90
2022-11-10T20:35:47.481Z,9.90
2022-11-10T20:40:37.584Z,9.60
2022-11-10T20:44:50.540Z,9.50
2022-11-10T20:49:11.686Z,9.50
2022-11-10T20:53:34.085Z,9.60
2022-11-10T20:57:55.269Z,9.60
2022-11-10T21:02:16.951Z,9.70
2022-11-10T21:06:41.296Z,9.60
2022-11-10T21:11:06.048Z,9.70
2022-11-10T21:15:27.358Z,9.60
2022-11-10T21:19:49.389Z,9.60
2022-11-10T21:24:11.553Z,9.60
2022-11-10T21:28:34.294Z,9.50
2022-11-10T21:32:55.869Z,9.50
2022-11-10T21:37:17.193Z,9.40
2022-11-10T21:41:38.425Z,9.30
2022-11-10T21:46:02.180Z,9.30
2022-11-10T21:50:23.543Z,9.10
2022-11-10T21:54:44.628Z,9.00
2022-11-10T21:59:06.079Z,8.80
2022-11-10T22:03:29.855Z,8.60
2022-11-10T22:07:51.284Z,8.80
2022-11-10T22:12:31.749Z,8.80
2022-11-10T22:17:10.480Z,8.90
2022-11-10T22:21:33.131Z,8.90
2022-11-10T22:25:54.135Z,8.80
2022-11-10T22:30:15.542Z,8.70
2022-11-10T22:34:36.927Z,8.70
2022-11-10T22:39:03.465Z,8.60
2022-11-10T22:43:42.698Z,8.60
2022-11-10T22:48:21.666Z,8.50
2022-11-10T22:52:43.201Z,8.50
2022-11-10T22:57:05.948Z,8.40
2022-11-10T23:01:27.226Z,8.30
2022-11-10T23:05:56.248Z,8.30
2022-11-10T23:10:18.121Z,8.30
2022-11-10T23:14:40.892Z,8.20
2022-11-10T23:19:02.510Z,8.30
2022-11-10T23:23:24.286Z,8.20
2022-11-10T23:27:46.049Z,8.20
2022-11-10T23:32:08.433Z,8.20
2022-11-10T23:36:29.613Z,8.00
2022-11-10T23:40:55.642Z,7.90
2022-11-10T23:45:17.137Z,7.90
2022-11-10T23:49:39.689Z,7.80
2022-11-10T23:54:00.981Z,7.70
2022-11-10T23:58:22.995Z,7.70
